Time;durP1;ratioP1;P1;durP2;ratioP2;P2;SDS_P1;SDS_P2;PMS_P1;PMS_P2;Temp;Humidity;BMP_temperature;BMP_pressure;BME280_temperature;BME280_humidity;BME280_pressure;Samples;Min_cycle;Max_cycle;Signal;HPM_P1;HPM_P2
2021/10/18 00:02:25;;;;;;;4.55;2.28;;;;;;;8.12;50.76;93268.81;2071394;69;20201;-74
2021/10/18 00:04:51;;;;;;;3.38;2.08;;;;;;;8.23;50.00;93264.72;2071551;69;20148;-74
2021/10/18 00:07:17;;;;;;;3.67;2.10;;;;;;;8.19;49.95;93264.41;2071624;69;20140;-74
2021/10/18 00:09:42;;;;;;;4.03;2.10;;;;;;;8.30;49.95;93258.28;2071307;69;20148;-77
2021/10/18 00:12:08;;;;;;;3.00;2.13;;;;;;;8.13;50.58;93266.75;2071570;69;20592;-76
2021/10/18 00:14:34;;;;;;;3.67;2.25;;;;;;;8.17;51.08;93264.25;2071369;69;20646;-73
2021/10/18 00:17:00;;;;;;;4.75;2.38;;;;;;;8.25;50.12;93264.91;2071379;69;20180;-76
2021/10/18 00:19:26;;;;;;;4.13;2.38;;;;;;;8.22;50.52;93265.31;2071393;69;20369;-76
2021/10/18 00:21:51;;;;;;;5.18;2.40;;;;;;;8.06;52.12;93257.13;2071430;69;20159;-75
2021/10/18 00:24:18;;;;;;;2.88;2.00;;;;;;;8.17;50.97;93267.06;2071285;69;20136;-75
2021/10/18 00:26:44;;;;;;;3.53;2.20;;;;;;;8.15;51.41;93264.09;2071572;69;20144;-74
2021/10/18 00:29:10;;;;;;;3.58;2.20;;;;;;;8.03;51.99;93279.97;2071397;69;20160;-73
2021/10/18 00:31:36;;;;;;;3.83;2.20;;;;;;;8.01;52.40;93271.38;2071334;69;20212;-73
2021/10/18 00:34:02;;;;;;;2.55;1.70;;;;;;;8.16;51.18;93274.00;2071428;69;20249;-74
2021/10/18 00:36:28;;;;;;;2.95;1.85;;;;;;;8.18;50.40;93273.41;2067997;69;20140;-73
2021/10/18 00:38:53;;;;;;;3.97;2.22;;;;;;;8.07;50.53;93266.28;2071453;69;20152;-73
2021/10/18 00:41:20;;;;;;;3.10;1.88;;;;;;;8.18;50.57;93276.22;2071204;69;20148;-73
2021/10/18 00:43:49;;;;;;;2.60;1.80;;;;;;;8.25;49.67;93264.16;2068610;69;20132;-77
2021/10/18 00:46:20;;;;;;;4.03;2.00;;;;;;;8.21;50.13;93272.25;2072082;69;20145;-77
2021/10/18 00:48:46;;;;;;;6.07;3.10;;;;;;;7.81;52.16;93262.13;2072020;69;20156;-75
2021/10/18 00:51:12;;;;;;;4.43;2.22;;;;;;;8.00;51.46;93272.72;2071868;69;20152;-75
2021/10/18 00:53:39;;;;;;;4.70;2.47;;;;;;;7.81;52.09;93273.31;2071961;69;20172;-76
2021/10/18 00:56:05;;;;;;;5.68;2.40;;;;;;;7.89;51.77;93271.91;2068652;69;20164;-74
2021/10/18 00:58:31;;;;;;;4.18;2.20;;;;;;;7.96;52.09;93269.59;2068542;69;20218;-75
2021/10/18 01:00:57;;;;;;;4.63;2.13;;;;;;;7.79;52.49;93271.13;2072086;69;20155;-74
2021/10/18 01:03:24;;;;;;;3.63;2.47;;;;;;;7.59;53.36;93267.41;2071919;69;20497;-76
2021/10/18 01:05:50;;;;;;;4.10;2.25;;;;;;;7.51;54.02;93258.34;2071832;69;20191;-74
2021/10/18 01:08:16;;;;;;;2.92;2.00;;;;;;;7.87;51.83;93268.19;2071888;69;20159;-74
2021/10/18 01:10:41;;;;;;;3.92;2.20;;;;;;;7.49;54.42;93263.06;2071868;69;20136;-74
2021/10/18 01:13:07;;;;;;;3.67;2.10;;;;;;;7.71;52.74;93252.91;2071930;69;20247;-74
2021/10/18 01:15:32;;;;;;;4.22;2.13;;;;;;;7.61;53.67;93259.19;2071878;69;20516;-75
2021/10/18 01:17:58;;;;;;;4.30;1.95;;;;;;;7.58;53.79;93265.94;2072004;69;20206;-77
2021/10/18 01:20:31;;;;;;;2.88;1.83;;;;;;;7.52;54.75;93251.44;2071969;69;20164;-77
2021/10/18 01:22:58;;;;;;;3.30;2.08;;;;;;;7.58;53.94;93251.19;2068778;69;20228;-77
2021/10/18 01:25:24;;;;;;;3.00;1.80;;;;;;;7.77;52.38;93256.91;2071908;69;20137;-76
2021/10/18 01:27:49;;;;;;;2.85;2.08;;;;;;;6.81;57.14;93256.81;2071953;69;20140;-78
2021/10/18 01:30:15;;;;;;;4.93;1.98;;;;;;;7.32;54.69;93258.19;2068657;69;20145;-77
2021/10/18 01:32:43;;;;;;;3.35;1.98;;;;;;;7.09;56.02;93253.56;2071951;69;20543;-76
2021/10/18 01:35:09;;;;;;;4.50;2.10;;;;;;;7.61;51.54;93258.44;2071832;69;20227;-76
2021/10/18 01:37:36;;;;;;;2.55;1.73;;;;;;;7.70;50.98;93257.78;2071902;69;20147;-76
2021/10/18 01:40:13;;;;;;;3.83;2.25;;;;;;;7.49;53.79;93257.44;2071834;69;20148;-76
2021/10/18 01:42:39;;;;;;;3.33;2.00;;;;;;;7.46;54.02;93253.00;2071976;69;20140;-76
2021/10/18 01:45:08;;;;;;;5.68;1.80;;;;;;;7.26;55.37;93257.69;2068592;69;20155;-77
2021/10/18 01:47:33;;;;;;;6.20;1.92;;;;;;;7.42;53.67;93247.06;2072045;69;20148;-76
2021/10/18 01:49:59;;;;;;;2.30;1.70;;;;;;;7.48;54.18;93256.72;2071941;69;20133;-76
2021/10/18 01:52:26;;;;;;;2.70;1.75;;;;;;;7.58;51.76;93251.91;2071922;69;20619;-75
2021/10/18 01:54:51;;;;;;;3.33;1.95;;;;;;;7.42;53.70;93256.19;2071881;69;20144;-75
2021/10/18 01:57:18;;;;;;;3.72;2.15;;;;;;;7.22;53.94;93246.16;2071934;69;20580;-77
2021/10/18 01:59:43;;;;;;;5.32;2.08;;;;;;;7.56;52.40;93256.59;2068570;69;20274;-77
2021/10/18 02:02:09;;;;;;;3.05;1.92;;;;;;;7.59;51.76;93253.41;2068544;69;20719;-76
2021/10/18 02:04:36;;;;;;;4.97;2.33;;;;;;;7.57;52.07;93258.09;2071874;69;20129;-77
2021/10/18 02:07:02;;;;;;;3.53;2.10;;;;;;;6.82;56.06;93270.22;2071860;69;20232;-77
2021/10/18 02:09:27;;;;;;;5.13;2.20;;;;;;;6.92;56.32;93269.59;2071820;69;20144;-77
2021/10/18 02:11:53;;;;;;;8.30;2.40;;;;;;;7.11;55.27;93276.16;2071847;69;20140;-77
2021/10/18 02:14:19;;;;;;;3.45;2.03;;;;;;;7.27;55.09;93256.38;2071819;69;20253;-75
2021/10/18 02:16:44;;;;;;;3.08;2.00;;;;;;;7.21;54.94;93259.44;2071849;69;20142;-75
2021/10/18 02:19:10;;;;;;;4.90;2.13;;;;;;;7.19;54.87;93259.25;2071888;69;20628;-77
2021/10/18 02:21:36;;;;;;;4.75;2.25;;;;;;;6.86;56.52;93256.56;2071867;69;20184;-74
2021/10/18 02:24:02;;;;;;;6.35;2.30;;;;;;;6.97;56.05;93260.25;2071717;69;20148;-75
2021/10/18 02:26:28;;;;;;;4.03;2.05;;;;;;;6.97;56.09;93252.59;2071845;69;20153;-76
2021/10/18 02:28:54;;;;;;;4.20;2.17;;;;;;;7.08;56.23;93256.94;2071983;69;20144;-76
2021/10/18 02:31:21;;;;;;;5.28;2.33;;;;;;;7.14;55.75;93265.84;2071845;69;20644;-77
2021/10/18 02:33:47;;;;;;;4.78;2.30;;;;;;;7.12;55.59;93265.69;2071805;69;20161;-77
2021/10/18 02:36:13;;;;;;;4.60;2.20;;;;;;;7.14;54.87;93257.44;2071805;69;20152;-75
2021/10/18 02:38:39;;;;;;;3.78;1.73;;;;;;;7.07;55.44;93261.81;2071841;69;20156;-77
2021/10/18 02:41:06;;;;;;;3.75;2.03;;;;;;;6.95;55.61;93268.47;2071831;69;20140;-77
2021/10/18 02:43:31;;;;;;;5.18;2.40;;;;;;;6.86;56.25;93270.56;2068542;69;20143;-77
2021/10/18 02:45:57;;;;;;;3.67;2.20;;;;;;;6.74;57.07;93266.03;2071939;69;20157;-77
2021/10/18 02:48:24;;;;;;;5.93;2.50;;;;;;;6.80;55.63;93258.88;2071814;69;20603;-75
2021/10/18 02:50:52;;;;;;;5.50;2.70;;;;;;;6.79;56.31;93253.88;2068447;69;20148;-75
2021/10/18 02:53:18;;;;;;;3.78;2.20;;;;;;;6.71;57.14;93253.94;2068378;69;20612;-76
2021/10/18 02:55:44;;;;;;;3.20;2.10;;;;;;;6.77;56.80;93253.69;2068377;69;20155;-77
2021/10/18 02:58:10;;;;;;;5.38;2.50;;;;;;;6.26;59.57;93260.59;2071796;69;20144;-75
2021/10/18 03:00:35;;;;;;;4.13;2.38;;;;;;;6.15;59.05;93258.28;2071759;69;20147;-75
2021/10/18 03:03:01;;;;;;;4.53;2.63;;;;;;;6.39;58.31;93257.53;2068491;69;20184;-75
2021/10/18 03:05:28;;;;;;;6.00;2.95;;;;;;;6.14;59.48;93262.34;2071664;69;20210;-75
2021/10/18 03:07:56;;;;;;;4.22;2.38;;;;;;;6.21;59.60;93261.56;2071777;69;20228;-77
2021/10/18 03:10:22;;;;;;;4.60;2.70;;;;;;;6.16;59.73;93257.69;2071774;69;20527;-76
2021/10/18 03:12:48;;;;;;;5.85;2.97;;;;;;;6.35;58.71;93271.16;2071758;69;20244;-77
2021/10/18 03:15:14;;;;;;;5.55;3.20;;;;;;;6.38;58.72;93264.44;2071821;69;20504;-77
2021/10/18 03:17:40;;;;;;;6.68;3.58;;;;;;;6.13;59.36;93269.25;2071711;69;20145;-77
2021/10/18 03:20:08;;;;;;;6.38;3.33;;;;;;;6.07;59.12;93280.66;2071933;69;20172;-75
2021/10/18 03:22:34;;;;;;;6.03;3.10;;;;;;;6.10;58.49;93290.72;2071796;69;20144;-77
2021/10/18 03:24:59;;;;;;;5.40;3.30;;;;;;;6.23;58.14;93284.09;2068244;69;20493;-75
2021/10/18 03:27:25;;;;;;;5.30;3.00;;;;;;;6.19;59.01;93286.56;2071724;69;20611;-76
2021/10/18 03:29:51;;;;;;;5.88;3.40;;;;;;;6.06;59.19;93284.78;2068497;69;20231;-75
2021/10/18 03:32:16;;;;;;;5.70;3.20;;;;;;;5.70;61.49;93282.31;2071703;69;20175;-75
2021/10/18 03:34:42;;;;;;;5.75;3.20;;;;;;;5.77;60.78;93287.13;2068336;69;20574;-75
2021/10/18 03:37:07;;;;;;;5.80;3.30;;;;;;;5.97;59.05;93286.13;2071649;69;20489;-75
2021/10/18 03:39:33;;;;;;;5.55;3.20;;;;;;;5.92;60.39;93278.72;2071576;69;20191;-76
2021/10/18 03:41:59;;;;;;;5.30;3.28;;;;;;;5.86;60.57;93281.69;2071795;69;20137;-77
2021/10/18 03:44:25;;;;;;;5.97;3.35;;;;;;;5.91;59.43;93277.19;2071810;69;20210;-75
2021/10/18 03:46:50;;;;;;;6.72;3.05;;;;;;;5.88;59.86;93283.91;2071634;69;20221;-77
2021/10/18 03:49:16;;;;;;;7.15;3.40;;;;;;;5.91;60.47;93293.19;2071652;69;20192;-77
2021/10/18 03:51:42;;;;;;;9.40;3.50;;;;;;;5.92;59.80;93286.34;2071647;69;20140;-75
2021/10/18 03:54:08;;;;;;;6.88;4.03;;;;;;;5.96;59.13;93295.09;2071612;69;20144;-75
2021/10/18 03:56:33;;;;;;;6.78;3.55;;;;;;;5.96;59.64;93295.84;2071620;69;20231;-77
2021/10/18 03:58:59;;;;;;;5.65;3.53;;;;;;;5.91;59.81;93290.41;2071704;69;20223;-75
2021/10/18 04:01:25;;;;;;;6.32;3.50;;;;;;;5.39;63.58;93306.81;2068421;69;20143;-75
2021/10/18 04:03:51;;;;;;;6.70;3.90;;;;;;;5.65;60.67;93314.75;2071614;69;20187;-75
2021/10/18 04:06:16;;;;;;;8.60;3.40;;;;;;;5.61;61.45;93312.31;2071732;69;20620;-75
2021/10/18 04:08:43;;;;;;;9.45;3.47;;;;;;;5.82;59.82;93312.06;2071505;69;20144;-75
2021/10/18 04:11:09;;;;;;;6.65;3.40;;;;;;;5.73;60.59;93318.25;2071605;69;20231;-75
2021/10/18 04:13:34;;;;;;;7.05;4.07;;;;;;;5.82;60.42;93320.47;2071588;69;20235;-76
2021/10/18 04:16:00;;;;;;;7.15;3.10;;;;;;;5.51;62.06;93319.81;2071787;69;20144;-77
2021/10/18 04:18:26;;;;;;;7.45;3.20;;;;;;;5.84;58.32;93320.63;2072149;69;20536;-78
2021/10/18 04:20:52;;;;;;;7.22;3.67;;;;;;;5.71;60.61;93318.06;2068766;69;20151;-77
2021/10/18 04:23:18;;;;;;;9.25;3.95;;;;;;;5.69;60.76;93328.34;2068706;69;20323;-77
2021/10/18 04:25:44;;;;;;;9.45;3.70;;;;;;;5.68;60.85;93321.25;2071979;69;20148;-76
2021/10/18 04:28:09;;;;;;;7.13;3.80;;;;;;;5.73;60.86;93323.09;2068668;69;20179;-75
2021/10/18 04:30:35;;;;;;;7.45;3.78;;;;;;;5.72;60.93;93327.94;2072053;69;20168;-75
2021/10/18 04:33:01;;;;;;;10.43;4.10;;;;;;;5.61;61.01;93336.72;2072007;69;20614;-75
2021/10/18 04:35:26;;;;;;;11.57;4.57;;;;;;;5.69;61.04;93331.13;2068685;69;20214;-75
2021/10/18 04:37:52;;;;;;;6.03;3.42;;;;;;;5.68;59.88;93333.19;2072043;69;20223;-75
2021/10/18 04:40:17;;;;;;;8.80;4.30;;;;;;;5.71;61.56;93336.88;2071974;69;20160;-75
2021/10/18 04:42:43;;;;;;;11.50;5.28;;;;;;;5.63;60.90;93353.66;2072061;69;20155;-75
2021/10/18 04:45:10;;;;;;;9.93;5.13;;;;;;;5.59;61.11;93347.72;2071998;69;20147;-76
2021/10/18 04:47:48;;;;;;;11.32;5.57;;;;;;;5.50;61.48;93340.69;2071965;69;20227;-75
2021/10/18 04:50:15;;;;;;;12.95;5.82;;;;;;;5.62;60.82;93343.78;2072136;69;20497;-76
2021/10/18 04:52:40;;;;;;;9.63;5.55;;;;;;;5.63;61.31;93350.13;2072089;69;20136;-75
2021/10/18 04:55:06;;;;;;;9.77;5.40;;;;;;;5.54;61.75;93338.25;2071863;69;20233;-76
2021/10/18 04:57:33;;;;;;;12.80;5.50;;;;;;;5.65;61.00;93339.16;2068656;69;20167;-77
2021/10/18 04:59:58;;;;;;;14.45;5.45;;;;;;;5.70;59.70;93338.19;2071964;69;20585;-77
2021/10/18 05:02:24;;;;;;;11.07;5.72;;;;;;;5.62;60.77;93341.00;2072013;69;20604;-74
2021/10/18 05:04:49;;;;;;;11.65;5.93;;;;;;;5.66;61.48;93346.22;2072105;69;20603;-75
2021/10/18 05:07:15;;;;;;;12.02;5.53;;;;;;;5.61;61.78;93345.84;2068685;69;20140;-75
2021/10/18 05:09:41;;;;;;;12.70;5.13;;;;;;;5.57;61.55;93336.38;2071928;69;20596;-75
2021/10/18 05:12:06;;;;;;;8.68;4.60;;;;;;;5.71;60.99;93350.84;2068626;69;20255;-75
2021/10/18 05:14:32;;;;;;;15.18;5.50;;;;;;;5.44;62.18;93362.47;2072047;69;20128;-75
2021/10/18 05:16:57;;;;;;;10.88;5.50;;;;;;;5.61;62.29;93353.50;2071977;69;20179;-75
2021/10/18 05:19:23;;;;;;;11.40;5.15;;;;;;;5.71;60.81;93354.38;2068637;69;20187;-77
2021/10/18 05:21:49;;;;;;;8.75;5.00;;;;;;;5.80;60.53;93351.00;2071924;69;20596;-76
2021/10/18 05:24:15;;;;;;;13.07;4.68;;;;;;;5.82;59.13;93361.63;2071948;69;20144;-77
2021/10/18 05:26:41;;;;;;;12.48;5.32;;;;;;;5.70;60.66;93355.69;2071938;69;20574;-77
2021/10/18 05:29:07;;;;;;;8.77;4.88;;;;;;;5.74;60.14;93352.53;2068568;69;20152;-76
2021/10/18 05:31:33;;;;;;;12.18;6.25;;;;;;;5.91;59.96;93363.84;2071920;69;20235;-77
2021/10/18 05:33:59;;;;;;;9.20;5.15;;;;;;;6.04;59.35;93362.84;2071835;69;20194;-75
2021/10/18 05:36:25;;;;;;;8.70;3.60;;;;;;;5.99;58.60;93372.19;2071919;69;20140;-76
2021/10/18 05:38:51;;;;;;;6.18;2.42;;;;;;;6.20;56.93;93378.28;2071806;69;20152;-76
2021/10/18 05:41:17;;;;;;;12.10;6.28;;;;;;;6.02;58.11;93376.66;2071921;69;20175;-75
2021/10/18 05:43:43;;;;;;;14.55;6.30;;;;;;;6.04;58.94;93368.44;2071871;69;20140;-75
2021/10/18 05:46:09;;;;;;;7.03;3.03;;;;;;;6.02;58.15;93363.44;2071883;69;20152;-75
2021/10/18 05:48:36;;;;;;;6.72;2.20;;;;;;;6.25;57.30;93360.53;2071885;69;20524;-76
2021/10/18 05:51:02;;;;;;;7.82;3.10;;;;;;;6.18;57.33;93361.28;2072013;69;20147;-75
2021/10/18 05:53:28;;;;;;;14.32;5.05;;;;;;;5.58;60.46;93360.94;2068520;69;20210;-75
2021/10/18 05:55:54;;;;;;;10.07;4.95;;;;;;;5.98;59.04;93367.91;2071796;69;20598;-76
2021/10/18 05:58:19;;;;;;;13.02;5.55;;;;;;;5.99;59.33;93380.59;2071785;69;20140;-75
2021/10/18 06:00:45;;;;;;;10.77;5.68;;;;;;;5.95;58.78;93383.75;2068628;69;20156;-78
2021/10/18 06:03:12;;;;;;;10.73;5.05;;;;;;;5.92;60.15;93379.31;2068560;69;20145;-77
2021/10/18 06:05:46;;;;;;;9.05;4.47;;;;;;;5.97;58.98;93394.38;2065766;69;20590;-77
2021/10/18 06:08:13;;;;;;;14.02;5.35;;;;;;;5.80;59.47;93400.56;2071936;69;20136;-78
2021/10/18 06:10:39;;;;;;;11.30;5.97;;;;;;;5.88;59.65;93406.88;2071829;69;20128;-78
2021/10/18 06:13:05;;;;;;;25.77;6.68;;;;;;;5.84;59.47;93412.09;2071877;69;20191;-77
2021/10/18 06:15:31;;;;;;;15.93;5.80;;;;;;;5.94;59.17;93403.91;2071811;69;20247;-76
2021/10/18 06:18:09;;;;;;;8.88;5.20;;;;;;;5.91;58.88;93402.97;2071831;69;20655;-76
2021/10/18 06:20:35;;;;;;;13.18;6.43;;;;;;;5.75;60.29;93410.63;2068534;69;20218;-77
2021/10/18 06:23:01;;;;;;;11.32;6.43;;;;;;;5.86;58.79;93413.03;2071863;69;20152;-77
2021/10/18 06:25:27;;;;;;;15.32;6.85;;;;;;;5.81;59.85;93413.94;2071723;69;20631;-77
2021/10/18 06:27:52;;;;;;;11.75;6.45;;;;;;;5.79;58.70;93415.84;2071800;69;20141;-76
2021/10/18 06:30:18;;;;;;;8.77;4.28;;;;;;;5.81;59.65;93411.16;2071949;69;20213;-78
2021/10/18 06:32:43;;;;;;;13.95;7.90;;;;;;;5.77;59.96;93422.00;2071856;69;20524;-76
2021/10/18 06:35:09;;;;;;;28.13;9.35;;;;;;;5.75;59.41;93421.81;2071707;69;20144;-77
2021/10/18 06:37:35;;;;;;;14.85;8.43;;;;;;;5.86;59.26;93424.22;2068530;69;20176;-77
2021/10/18 06:40:01;;;;;;;13.93;7.68;;;;;;;5.52;60.79;93435.81;2071542;69;20167;-78
2021/10/18 06:42:27;;;;;;;14.15;7.07;;;;;;;5.72;60.75;93441.72;2071813;69;20199;-79
2021/10/18 06:44:52;;;;;;;13.20;7.07;;;;;;;5.87;59.05;93444.50;2071796;69;20149;-78
2021/10/18 06:47:18;;;;;;;16.10;7.35;;;;;;;5.85;59.38;93450.66;2071803;69;20152;-78
2021/10/18 06:49:44;;;;;;;12.82;7.20;;;;;;;5.87;59.55;93452.91;2071890;69;20152;-77
2021/10/18 06:52:09;;;;;;;11.40;7.05;;;;;;;5.79;60.31;93450.09;2071781;69;20140;-77
2021/10/18 06:54:41;;;;;;;18.15;7.47;;;;;;;5.80;60.28;93450.84;2071646;69;20144;-77
2021/10/18 06:57:07;;;;;;;18.75;6.90;;;;;;;5.92;59.44;93451.97;2071922;69;20233;-77
2021/10/18 06:59:32;;;;;;;17.90;8.95;;;;;;;5.66;61.16;93450.31;2071688;69;20190;-77
2021/10/18 07:01:59;;;;;;;25.58;11.85;;;;;;;5.77;60.47;93451.97;2071741;69;20522;-76
2021/10/18 07:04:29;;;;;;;16.10;7.78;;;;;;;5.86;59.09;93460.53;2071763;69;20160;-77
2021/10/18 07:06:56;;;;;;;14.60;8.35;;;;;;;5.91;59.47;93452.50;2071725;69;20139;-77
2021/10/18 07:09:24;;;;;;;15.73;8.27;;;;;;;5.77;60.92;93451.97;2071600;69;20132;-77
2021/10/18 07:11:51;;;;;;;15.82;7.90;;;;;;;5.83;59.41;93456.06;2071840;69;20584;-77
2021/10/18 07:14:16;;;;;;;30.88;12.13;;;;;;;5.71;61.32;93457.75;2071684;69;20664;-77
2021/10/18 07:16:42;;;;;;;24.05;10.27;;;;;;;5.69;61.41;93456.84;2071733;69;20151;-78
2021/10/18 07:19:08;;;;;;;18.67;9.25;;;;;;;5.75;60.78;93460.19;2068438;69;20556;-77
2021/10/18 07:21:34;;;;;;;15.88;7.95;;;;;;;5.81;60.58;93458.66;2068359;69;20183;-77
2021/10/18 07:24:03;;;;;;;15.25;6.90;;;;;;;5.65;61.01;93473.22;2071566;69;20230;-76
2021/10/18 07:26:29;;;;;;;16.25;8.15;;;;;;;5.40;62.02;93481.41;2068347;69;20232;-77
2021/10/18 07:28:55;;;;;;;22.23;10.25;;;;;;;5.58;62.45;93483.09;2071692;69;20176;-76
2021/10/18 07:31:21;;;;;;;24.23;11.25;;;;;;;5.68;61.67;93486.84;2071709;69;20142;-76
2021/10/18 07:33:47;;;;;;;26.25;12.05;;;;;;;5.79;60.22;93480.84;2071617;69;20175;-77
2021/10/18 07:36:22;;;;;;;24.58;11.50;;;;;;;5.80;61.16;93482.31;2068293;69;20171;-76
2021/10/18 07:38:49;;;;;;;21.33;9.00;;;;;;;5.73;61.52;93490.75;2071436;69;20128;-76
2021/10/18 07:41:15;;;;;;;17.17;9.10;;;;;;;5.35;63.05;93494.28;2071360;69;20497;-75
2021/10/18 07:43:41;;;;;;;17.13;8.95;;;;;;;5.50;62.96;93488.69;2071655;69;20148;-76
2021/10/18 07:46:06;;;;;;;19.20;8.40;;;;;;;5.58;62.91;93477.50;2071833;69;20176;-79
2021/10/18 07:48:33;;;;;;;12.70;7.88;;;;;;;5.70;61.77;93470.25;2071631;69;20198;-82
2021/10/18 07:50:59;;;;;;;13.45;7.68;;;;;;;5.77;59.44;93468.72;2068502;69;20164;-79
2021/10/18 07:53:24;;;;;;;21.50;9.13;;;;;;;5.77;60.47;93468.72;2071643;69;20136;-78
2021/10/18 07:55:50;;;;;;;23.08;8.90;;;;;;;5.62;63.16;93469.50;2071608;69;20152;-79
2021/10/18 07:58:16;;;;;;;14.30;7.85;;;;;;;5.78;61.90;93468.19;2071545;69;20497;-75
2021/10/18 08:00:41;;;;;;;20.83;8.05;;;;;;;5.77;60.40;93471.53;2071802;69;20147;-76
2021/10/18 08:03:07;;;;;;;18.48;8.25;;;;;;;5.59;62.54;93459.47;2068351;69;20168;-77
2021/10/18 08:05:33;;;;;;;22.35;7.50;;;;;;;6.05;61.58;93460.16;2068453;69;20194;-77
2021/10/18 08:07:58;;;;;;;19.88;6.97;;;;;;;6.68;59.31;93453.72;2071611;69;20143;-75
2021/10/18 08:10:24;;;;;;;18.23;7.55;;;;;;;7.11;64.00;93458.16;2071531;69;20221;-75
2021/10/18 08:12:52;;;;;;;14.68;6.40;;;;;;;7.51;58.94;93456.53;2071630;69;20152;-75
2021/10/18 08:15:17;;;;;;;16.80;7.38;;;;;;;8.06;60.41;93463.88;2071734;69;20202;-81
2021/10/18 08:17:43;;;;;;;14.52;7.05;;;;;;;8.58;60.11;93467.44;2071563;69;20183;-80
2021/10/18 08:20:09;;;;;;;14.18;6.50;;;;;;;8.96;58.01;93468.28;2068392;69;20143;-82
2021/10/18 08:22:35;;;;;;;18.13;7.72;;;;;;;9.27;57.55;93472.13;2071569;69;20202;-78
2021/10/18 08:25:00;;;;;;;18.95;7.55;;;;;;;9.78;57.00;93473.22;2071427;69;20566;-77
2021/10/18 08:27:26;;;;;;;23.95;6.60;;;;;;;10.18;55.19;93467.09;2071585;69;20246;-80
2021/10/18 08:29:52;;;;;;;13.02;5.35;;;;;;;10.52;53.16;93467.44;2071701;69;20144;-78
2021/10/18 08:32:17;;;;;;;9.77;4.95;;;;;;;10.65;53.92;93470.53;2071496;69;20144;-76
2021/10/18 08:34:43;;;;;;;11.68;5.30;;;;;;;11.23;51.15;93483.81;2068148;69;20144;-74
2021/10/18 08:37:09;;;;;;;7.47;4.22;;;;;;;11.45;50.30;93481.78;2071473;69;20151;-75
2021/10/18 08:42:25;;;;;;;9.93;4.25;;;;;;;11.79;45.58;93477.81;2068761;69;20148;-75
2021/10/18 08:44:51;;;;;;;11.40;3.92;;;;;;;12.24;47.54;93492.16;2071490;69;20153;-76
2021/10/18 08:47:16;;;;;;;14.25;4.35;;;;;;;12.59;46.80;93497.28;2071616;69;20164;-75
2021/10/18 08:49:42;;;;;;;5.22;3.70;;;;;;;13.05;45.82;93496.00;2071536;69;20144;-74
2021/10/18 08:52:09;;;;;;;7.00;4.10;;;;;;;13.51;46.46;93503.91;2068204;69;20156;-75
2021/10/18 08:54:35;;;;;;;5.15;3.17;;;;;;;13.90;43.09;93498.56;2071377;69;20140;-78
2021/10/18 08:57:00;;;;;;;5.05;2.88;;;;;;;13.59;42.92;93495.19;2071452;69;20159;-77
2021/10/18 08:59:27;;;;;;;9.48;3.30;;;;;;;14.10;42.33;93484.88;2071445;69;20152;-78
2021/10/18 09:01:57;;;;;;;8.52;3.22;;;;;;;14.52;42.58;93491.63;2071561;69;20157;-74
2021/10/18 09:04:25;;;;;;;5.75;2.88;;;;;;;14.65;40.71;93490.25;2072084;69;20144;-76
2021/10/18 09:06:52;;;;;;;4.07;2.90;;;;;;;15.28;40.76;93484.59;2068671;69;20175;-75
2021/10/18 09:09:25;;;;;;;6.32;3.55;;;;;;;15.50;40.08;93478.06;2071875;69;20152;-75
2021/10/18 09:11:58;;;;;;;6.38;3.70;;;;;;;15.77;40.10;93484.47;2071950;69;20180;-74
2021/10/18 09:14:23;;;;;;;6.40;2.92;;;;;;;15.86;36.01;93477.88;2072016;69;20144;-73
2021/10/18 09:16:49;;;;;;;6.30;3.40;;;;;;;15.98;38.19;93478.50;2072067;69;20148;-73
2021/10/18 09:19:23;;;;;;;8.85;3.60;;;;;;;16.42;38.41;93476.53;2071982;69;20531;-74
2021/10/18 09:21:53;;;;;;;5.40;3.35;;;;;;;15.96;37.46;93479.13;2068623;69;20660;-74
2021/10/18 09:24:34;;;;;;;6.78;3.10;;;;;;;15.97;37.08;93472.09;2071818;69;20217;-75
2021/10/18 09:27:18;;;;;;;5.32;3.33;;;;;;;15.84;36.37;93489.84;2071893;69;20588;-74
2021/10/18 09:29:47;;;;;;;5.10;3.53;;;;;;;16.04;36.92;93484.53;2071975;69;20608;-75
2021/10/18 09:32:28;;;;;;;5.75;3.47;;;;;;;16.93;35.55;93479.13;2071957;69;20221;-75
2021/10/18 09:35:18;;;;;;;5.47;3.45;;;;;;;17.93;34.58;93481.06;2071917;69;20139;-75
2021/10/18 09:37:45;;;;;;;6.35;3.40;;;;;;;18.07;34.16;93469.56;2071965;69;20189;-74
2021/10/18 09:40:30;;;;;;;7.15;4.25;;;;;;;17.52;35.56;93477.03;2071741;69;20152;-75
2021/10/18 09:43:13;;;;;;;5.68;2.83;;;;;;;18.76;34.13;93470.50;2071940;69;20202;-75
2021/10/18 09:45:59;;;;;;;4.82;3.35;;;;;;;18.68;34.06;93467.28;2071924;69;20623;-75
2021/10/18 10:56:21;;;;;;;2.80;2.10;;;;;;;28.22;21.60;93414.00;2071701;69;20646;-73
2021/10/18 10:58:53;;;;;;;2.88;2.17;;;;;;;30.65;20.19;93420.91;2071832;69;20516;-74
2021/10/18 11:01:47;;;;;;;2.53;1.80;;;;;;;30.87;18.67;93411.41;2071852;69;20132;-76
2021/10/18 11:04:36;;;;;;;2.95;1.95;;;;;;;31.11;19.60;93417.13;2071875;69;20156;-72
2021/10/18 11:07:03;;;;;;;3.85;1.95;;;;;;;31.05;19.20;93410.59;2072098;69;20152;-75
2021/10/18 11:09:44;;;;;;;4.32;1.80;;;;;;;33.23;17.76;93407.94;2068403;69;20159;-74
2021/10/18 11:12:21;;;;;;;3.25;1.85;;;;;;;34.73;16.50;93415.75;2071937;69;20236;-75
2021/10/18 11:15:08;;;;;;;2.67;1.88;;;;;;;35.11;16.17;93405.50;2071743;69;20599;-77
2021/10/18 11:17:54;;;;;;;3.70;2.30;;;;;;;32.07;17.15;93399.00;2071947;69;20148;-77
2021/10/18 11:20:26;;;;;;;5.20;2.13;;;;;;;32.33;17.46;93397.28;2071795;69;20146;-76
2021/10/18 11:22:58;;;;;;;3.35;1.60;;;;;;;33.93;16.71;93390.13;2071687;69;20218;-80
2021/10/18 11:25:31;;;;;;;2.70;1.92;;;;;;;33.94;16.68;93391.56;2071600;69;20144;-74
2021/10/18 11:28:02;;;;;;;3.22;1.50;;;;;;;33.54;16.96;93391.47;2071819;69;20180;-76
2021/10/18 11:30:30;;;;;;;1.65;1.55;;;;;;;33.22;17.89;93386.81;2068398;69;20245;-75
2021/10/18 11:32:57;;;;;;;1.92;1.35;;;;;;;33.95;15.15;93387.16;2068397;69;20136;-76
2021/10/18 11:35:24;;;;;;;3.30;1.50;;;;;;;34.38;15.86;93384.22;2071763;69;20222;-77
2021/10/18 11:37:52;;;;;;;1.75;1.40;;;;;;;35.82;14.47;93392.19;2071697;69;20137;-75
2021/10/18 11:40:21;;;;;;;3.03;1.35;;;;;;;35.66;14.22;93391.88;2068275;69;20211;-75
2021/10/18 11:42:55;;;;;;;7.35;1.10;;;;;;;33.36;14.92;93377.84;2071869;69;20159;-75
2021/10/18 11:45:23;;;;;;;2.72;1.15;;;;;;;35.16;15.49;93376.88;2071665;69;20168;-79
2021/10/18 11:47:49;;;;;;;2.33;1.33;;;;;;;34.59;15.08;93378.72;2071621;69;20143;-75
2021/10/18 11:50:19;;;;;;;1.98;1.52;;;;;;;36.37;15.14;93381.31;2071637;69;20504;-79
2021/10/18 11:53:02;;;;;;;1.45;1.23;;;;;;;36.36;15.61;93376.97;2071635;69;20213;-76
2021/10/18 11:55:35;;;;;;;1.30;1.15;;;;;;;36.51;14.77;93377.31;2071522;69;20164;-78
2021/10/18 11:58:04;;;;;;;2.15;1.30;;;;;;;32.63;15.73;93367.84;2071551;69;20152;-75
2021/10/18 12:00:41;;;;;;;1.67;1.50;;;;;;;34.99;15.84;93373.56;2068200;69;20129;-75
2021/10/18 12:03:16;;;;;;;2.17;1.58;;;;;;;34.48;14.92;93363.59;2071702;69;20160;-75
2021/10/18 12:05:56;;;;;;;4.30;2.75;;;;;;;32.69;15.77;93351.75;2068302;69;20164;-79
2021/10/18 12:08:31;;;;;;;3.47;2.50;;;;;;;31.99;17.17;93354.69;2071541;69;20147;-80
2021/10/18 12:10:57;;;;;;;4.20;2.40;;;;;;;34.34;16.39;93355.81;2071531;69;20607;-78
2021/10/18 12:13:28;;;;;;;5.75;2.70;;;;;;;34.93;15.86;93356.84;2071569;69;20140;-74
2021/10/18 12:16:02;;;;;;;4.97;2.38;;;;;;;36.23;14.79;93356.03;2072564;69;20154;-76
2021/10/18 12:18:48;;;;;;;4.07;1.70;;;;;;;34.94;14.88;93348.81;2072931;69;20176;-76
2021/10/18 12:21:40;;;;;;;7.13;1.70;;;;;;;34.18;15.35;93341.50;2073367;69;20224;-76
2021/10/18 12:24:16;;;;;;;2.55;1.75;;;;;;;33.87;16.38;93344.22;2072603;69;20143;-74
2021/10/18 12:26:48;;;;;;;2.88;1.67;;;;;;;35.81;15.58;93349.03;2073585;69;20613;-76
2021/10/18 12:29:19;;;;;;;2.85;1.60;;;;;;;34.46;15.78;93349.03;2073005;69;20175;-76
2021/10/18 12:31:48;;;;;;;3.90;1.60;;;;;;;35.75;15.49;93355.78;2072847;69;20149;-80
2021/10/18 12:34:13;;;;;;;2.55;1.60;;;;;;;35.74;15.68;93359.47;2072232;69;20249;-76
2021/10/18 12:37:09;;;;;;;2.58;1.60;;;;;;;35.13;15.35;93355.72;2072280;69;20172;-75
2021/10/18 12:39:54;;;;;;;4.55;1.70;;;;;;;35.10;15.47;93348.47;2072168;69;20239;-77
2021/10/18 12:42:20;;;;;;;1.63;1.52;;;;;;;35.60;14.69;93354.66;2072805;69;20668;-78
2021/10/18 12:44:48;;;;;;;4.82;1.70;;;;;;;36.83;15.33;93352.22;2072642;69;20140;-78
2021/10/18 12:47:23;;;;;;;4.78;1.70;;;;;;;36.23;15.07;93355.31;2072480;69;20518;-75
2021/10/18 12:49:53;;;;;;;4.28;1.60;;;;;;;35.35;15.49;93351.56;2072411;69;20217;-75
2021/10/18 12:52:58;;;;;;;4.15;1.63;;;;;;;36.58;14.82;93352.22;2068912;69;20136;-76